sensor_id;sensor_type;location;lat;lon;timestamp;P1;durP1;ratioP1;P2;durP2;ratioP2
34236;SDS011;20501;45.956;13.632;2023-05-07T00:00:52;9.05;;;7.25;;
34236;SDS011;20501;45.956;13.632;2023-05-07T00:03:17;9.88;;;7.22;;
34236;SDS011;20501;45.956;13.632;2023-05-07T00:05:44;10.87;;;7.53;;
34236;SDS011;20501;45.956;13.632;2023-05-07T00:08:09;9.48;;;7.05;;
34236;SDS011;20501;45.956;13.632;2023-05-07T00:10:34;10.60;;;7.30;;
34236;SDS011;20501;45.956;13.632;2023-05-07T00:13:00;8.95;;;7.00;;
34236;SDS011;20501;45.956;13.632;2023-05-07T00:15:25;8.93;;;6.68;;
34236;SDS011;20501;45.956;13.632;2023-05-07T00:17:50;13.77;;;7.57;;
34236;SDS011;20501;45.956;13.632;2023-05-07T00:20:16;9.02;;;6.10;;
34236;SDS011;20501;45.956;13.632;2023-05-07T00:22:41;8.95;;;7.13;;
34236;SDS011;20501;45.956;13.632;2023-05-07T00:25:06;8.73;;;6.47;;
34236;SDS011;20501;45.956;13.632;2023-05-07T00:27:32;9.63;;;7.60;;
34236;SDS011;20501;45.956;13.632;2023-05-07T00:29:57;9.75;;;7.80;;
34236;SDS011;20501;45.956;13.632;2023-05-07T00:32:22;10.73;;;6.90;;
34236;SDS011;20501;45.956;13.632;2023-05-07T00:34:47;9.20;;;6.35;;
34236;SDS011;20501;45.956;13.632;2023-05-07T00:37:13;9.20;;;7.25;;
34236;SDS011;20501;45.956;13.632;2023-05-07T00:39:38;8.83;;;7.00;;
34236;SDS011;20501;45.956;13.632;2023-05-07T00:42:03;9.23;;;6.57;;
34236;SDS011;20501;45.956;13.632;2023-05-07T00:44:29;7.13;;;5.90;;
34236;SDS011;20501;45.956;13.632;2023-05-07T00:46:55;8.68;;;6.25;;
34236;SDS011;20501;45.956;13.632;2023-05-07T00:49:20;8.73;;;6.70;;
34236;SDS011;20501;45.956;13.632;2023-05-07T00:51:46;8.38;;;6.88;;
34236;SDS011;20501;45.956;13.632;2023-05-07T00:54:12;10.95;;;6.75;;
34236;SDS011;20501;45.956;13.632;2023-05-07T00:56:38;7.63;;;6.57;;
34236;SDS011;20501;45.956;13.632;2023-05-07T00:59:04;10.13;;;7.32;;
34236;SDS011;20501;45.956;13.632;2023-05-07T01:01:29;8.02;;;6.80;;
34236;SDS011;20501;45.956;13.632;2023-05-07T01:03:56;8.55;;;6.60;;
34236;SDS011;20501;45.956;13.632;2023-05-07T01:06:22;8.70;;;6.65;;
34236;SDS011;20501;45.956;13.632;2023-05-07T01:08:48;10.38;;;7.50;;
34236;SDS011;20501;45.956;13.632;2023-05-07T01:13:40;9.60;;;6.87;;
34236;SDS011;20501;45.956;13.632;2023-05-07T01:16:06;8.35;;;6.30;;
34236;SDS011;20501;45.956;13.632;2023-05-07T01:18:33;9.55;;;6.57;;
34236;SDS011;20501;45.956;13.632;2023-05-07T01:20:59;7.93;;;6.32;;
34236;SDS011;20501;45.956;13.632;2023-05-07T01:23:26;9.70;;;7.05;;
34236;SDS011;20501;45.956;13.632;2023-05-07T01:25:52;8.40;;;6.93;;
34236;SDS011;20501;45.956;13.632;2023-05-07T01:28:18;8.40;;;5.97;;
34236;SDS011;20501;45.956;13.632;2023-05-07T01:30:44;8.85;;;6.78;;
34236;SDS011;20501;45.956;13.632;2023-05-07T01:33:11;10.57;;;7.55;;
34236;SDS011;20501;45.956;13.632;2023-05-07T01:35:38;9.75;;;6.80;;
34236;SDS011;20501;45.956;13.632;2023-05-07T01:40:31;11.65;;;7.80;;
34236;SDS011;20501;45.956;13.632;2023-05-07T01:42:56;10.52;;;8.10;;
34236;SDS011;20501;45.956;13.632;2023-05-07T01:45:21;7.03;;;6.15;;
34236;SDS011;20501;45.956;13.632;2023-05-07T01:47:47;8.45;;;6.43;;
34236;SDS011;20501;45.956;13.632;2023-05-07T01:50:13;9.15;;;7.18;;
34236;SDS011;20501;45.956;13.632;2023-05-07T01:52:39;8.02;;;6.68;;
34236;SDS011;20501;45.956;13.632;2023-05-07T01:55:08;9.98;;;6.68;;
34236;SDS011;20501;45.956;13.632;2023-05-07T01:57:33;10.10;;;6.20;;
34236;SDS011;20501;45.956;13.632;2023-05-07T01:59:58;7.20;;;6.00;;
34236;SDS011;20501;45.956;13.632;2023-05-07T02:02:24;7.07;;;6.25;;
34236;SDS011;20501;45.956;13.632;2023-05-07T02:04:49;9.52;;;7.30;;
34236;SDS011;20501;45.956;13.632;2023-05-07T02:07:14;8.55;;;6.85;;
34236;SDS011;20501;45.956;13.632;2023-05-07T02:09:40;10.80;;;7.00;;
34236;SDS011;20501;45.956;13.632;2023-05-07T02:12:05;8.73;;;6.22;;
34236;SDS011;20501;45.956;13.632;2023-05-07T02:14:30;9.00;;;6.40;;
34236;SDS011;20501;45.956;13.632;2023-05-07T02:16:55;9.10;;;5.43;;
34236;SDS011;20501;45.956;13.632;2023-05-07T02:19:21;8.38;;;5.82;;
34236;SDS011;20501;45.956;13.632;2023-05-07T02:21:46;9.23;;;5.80;;
34236;SDS011;20501;45.956;13.632;2023-05-07T02:52:44;6.57;;;5.55;;
34236;SDS011;20501;45.956;13.632;2023-05-07T02:55:09;7.90;;;6.47;;
34236;SDS011;20501;45.956;13.632;2023-05-07T02:57:35;6.47;;;5.72;;
34236;SDS011;20501;45.956;13.632;2023-05-07T03:00:09;7.90;;;5.03;;
34236;SDS011;20501;45.956;13.632;2023-05-07T03:02:53;6.32;;;5.32;;
34236;SDS011;20501;45.956;13.632;2023-05-07T03:05:18;12.40;;;7.00;;
34236;SDS011;20501;45.956;13.632;2023-05-07T03:07:43;8.10;;;5.70;;
34236;SDS011;20501;45.956;13.632;2023-05-07T03:10:11;8.75;;;5.50;;
34236;SDS011;20501;45.956;13.632;2023-05-07T03:12:36;8.45;;;5.97;;
34236;SDS011;20501;45.956;13.632;2023-05-07T03:15:01;7.57;;;5.60;;
34236;SDS011;20501;45.956;13.632;2023-05-07T03:17:27;9.57;;;5.65;;
34236;SDS011;20501;45.956;13.632;2023-05-07T03:19:52;8.77;;;5.80;;
34236;SDS011;20501;45.956;13.632;2023-05-07T03:22:18;6.93;;;6.05;;
34236;SDS011;20501;45.956;13.632;2023-05-07T03:24:43;10.45;;;6.28;;
34236;SDS011;20501;45.956;13.632;2023-05-07T03:27:09;6.03;;;4.90;;
34236;SDS011;20501;45.956;13.632;2023-05-07T03:29:34;6.47;;;5.45;;
34236;SDS011;20501;45.956;13.632;2023-05-07T03:32:00;9.13;;;6.10;;
34236;SDS011;20501;45.956;13.632;2023-05-07T03:34:25;7.30;;;5.80;;
34236;SDS011;20501;45.956;13.632;2023-05-07T03:36:51;10.00;;;5.57;;
34236;SDS011;20501;45.956;13.632;2023-05-07T03:39:16;9.02;;;5.22;;
34236;SDS011;20501;45.956;13.632;2023-05-07T03:41:42;11.18;;;5.93;;
34236;SDS011;20501;45.956;13.632;2023-05-07T03:44:07;7.05;;;5.35;;
34236;SDS011;20501;45.956;13.632;2023-05-07T03:46:33;6.88;;;5.43;;
34236;SDS011;20501;45.956;13.632;2023-05-07T03:48:59;6.38;;;5.55;;
34236;SDS011;20501;45.956;13.632;2023-05-07T03:51:25;10.25;;;6.32;;
34236;SDS011;20501;45.956;13.632;2023-05-07T03:53:50;9.55;;;6.18;;
34236;SDS011;20501;45.956;13.632;2023-05-07T03:56:18;9.20;;;5.55;;
34236;SDS011;20501;45.956;13.632;2023-05-07T03:58:44;6.97;;;5.38;;
34236;SDS011;20501;45.956;13.632;2023-05-07T04:01:09;7.32;;;5.32;;
34236;SDS011;20501;45.956;13.632;2023-05-07T04:03:35;6.95;;;5.13;;
34236;SDS011;20501;45.956;13.632;2023-05-07T04:06:00;9.07;;;5.88;;
34236;SDS011;20501;45.956;13.632;2023-05-07T04:08:26;8.30;;;5.43;;
34236;SDS011;20501;45.956;13.632;2023-05-07T04:10:57;6.43;;;5.40;;
34236;SDS011;20501;45.956;13.632;2023-05-07T04:13:23;8.35;;;5.75;;
34236;SDS011;20501;45.956;13.632;2023-05-07T04:15:50;9.02;;;5.45;;
34236;SDS011;20501;45.956;13.632;2023-05-07T04:18:16;8.45;;;5.70;;
34236;SDS011;20501;45.956;13.632;2023-05-07T04:20:41;7.95;;;6.10;;
34236;SDS011;20501;45.956;13.632;2023-05-07T04:23:07;9.85;;;6.78;;
34236;SDS011;20501;45.956;13.632;2023-05-07T04:25:33;7.03;;;5.23;;
34236;SDS011;20501;45.956;13.632;2023-05-07T04:27:59;8.13;;;5.63;;
34236;SDS011;20501;45.956;13.632;2023-05-07T04:30:24;7.20;;;5.03;;
34236;SDS011;20501;45.956;13.632;2023-05-07T04:32:50;9.95;;;5.88;;
34236;SDS011;20501;45.956;13.632;2023-05-07T04:35:15;7.28;;;5.15;;
34236;SDS011;20501;45.956;13.632;2023-05-07T04:37:41;7.72;;;5.40;;
34236;SDS011;20501;45.956;13.632;2023-05-07T04:40:07;9.93;;;5.60;;
34236;SDS011;20501;45.956;13.632;2023-05-07T04:42:32;8.85;;;5.75;;
34236;SDS011;20501;45.956;13.632;2023-05-07T04:44:58;5.82;;;5.10;;
34236;SDS011;20501;45.956;13.632;2023-05-07T04:47:23;8.90;;;6.00;;
34236;SDS011;20501;45.956;13.632;2023-05-07T04:49:49;8.70;;;6.18;;
34236;SDS011;20501;45.956;13.632;2023-05-07T04:52:14;8.40;;;5.53;;
34236;SDS011;20501;45.956;13.632;2023-05-07T04:54:40;7.03;;;5.45;;
34236;SDS011;20501;45.956;13.632;2023-05-07T04:57:05;8.52;;;6.00;;
34236;SDS011;20501;45.956;13.632;2023-05-07T04:59:31;6.40;;;4.75;;
34236;SDS011;20501;45.956;13.632;2023-05-07T05:01:57;11.10;;;6.03;;
34236;SDS011;20501;45.956;13.632;2023-05-07T05:04:23;8.52;;;5.22;;
34236;SDS011;20501;45.956;13.632;2023-05-07T05:06:48;7.20;;;5.03;;
34236;SDS011;20501;45.956;13.632;2023-05-07T05:09:13;9.77;;;5.45;;
34236;SDS011;20501;45.956;13.632;2023-05-07T05:14:06;7.93;;;5.50;;
34236;SDS011;20501;45.956;13.632;2023-05-07T05:16:31;6.53;;;5.03;;
34236;SDS011;20501;45.956;13.632;2023-05-07T05:18:57;7.57;;;5.13;;
34236;SDS011;20501;45.956;13.632;2023-05-07T05:21:22;10.18;;;5.50;;
34236;SDS011;20501;45.956;13.632;2023-05-07T05:23:48;6.93;;;5.18;;
34236;SDS011;20501;45.956;13.632;2023-05-07T05:26:13;13.68;;;5.63;;
34236;SDS011;20501;45.956;13.632;2023-05-07T05:28:38;10.18;;;5.13;;
34236;SDS011;20501;45.956;13.632;2023-05-07T05:31:04;8.32;;;5.38;;
34236;SDS011;20501;45.956;13.632;2023-05-07T05:33:30;7.72;;;5.68;;
34236;SDS011;20501;45.956;13.632;2023-05-07T05:35:55;8.52;;;5.20;;
34236;SDS011;20501;45.956;13.632;2023-05-07T05:38:20;8.18;;;4.45;;
34236;SDS011;20501;45.956;13.632;2023-05-07T05:40:46;7.10;;;5.60;;
34236;SDS011;20501;45.956;13.632;2023-05-07T05:43:12;7.97;;;5.18;;
34236;SDS011;20501;45.956;13.632;2023-05-07T05:45:38;5.33;;;4.73;;
34236;SDS011;20501;45.956;13.632;2023-05-07T05:48:03;10.52;;;4.90;;
34236;SDS011;20501;45.956;13.632;2023-05-07T05:50:29;7.22;;;5.10;;
34236;SDS011;20501;45.956;13.632;2023-05-07T05:52:54;7.03;;;5.10;;
34236;SDS011;20501;45.956;13.632;2023-05-07T05:55:20;8.60;;;5.55;;
34236;SDS011;20501;45.956;13.632;2023-05-07T05:57:45;7.45;;;5.30;;
34236;SDS011;20501;45.956;13.632;2023-05-07T06:00:11;8.38;;;5.13;;
34236;SDS011;20501;45.956;13.632;2023-05-07T06:02:37;6.72;;;5.00;;
34236;SDS011;20501;45.956;13.632;2023-05-07T06:05:03;7.45;;;4.65;;
34236;SDS011;20501;45.956;13.632;2023-05-07T06:07:29;6.17;;;4.50;;
34236;SDS011;20501;45.956;13.632;2023-05-07T06:09:54;6.80;;;4.93;;
34236;SDS011;20501;45.956;13.632;2023-05-07T06:12:20;6.88;;;4.55;;
34236;SDS011;20501;45.956;13.632;2023-05-07T06:14:46;8.60;;;4.95;;
34236;SDS011;20501;45.956;13.632;2023-05-07T06:17:11;6.35;;;4.40;;
34236;SDS011;20501;45.956;13.632;2023-05-07T06:19:37;6.95;;;5.20;;
34236;SDS011;20501;45.956;13.632;2023-05-07T06:22:02;9.40;;;4.90;;
34236;SDS011;20501;45.956;13.632;2023-05-07T06:24:28;6.88;;;4.97;;
34236;SDS011;20501;45.956;13.632;2023-05-07T06:26:53;6.93;;;4.80;;
34236;SDS011;20501;45.956;13.632;2023-05-07T06:29:19;7.10;;;5.07;;
34236;SDS011;20501;45.956;13.632;2023-05-07T06:31:44;7.45;;;5.00;;
34236;SDS011;20501;45.956;13.632;2023-05-07T06:34:10;8.40;;;4.90;;
34236;SDS011;20501;45.956;13.632;2023-05-07T06:36:39;5.38;;;4.68;;
34236;SDS011;20501;45.956;13.632;2023-05-07T06:39:05;6.32;;;5.25;;
34236;SDS011;20501;45.956;13.632;2023-05-07T06:41:30;7.63;;;6.10;;
34236;SDS011;20501;45.956;13.632;2023-05-07T06:43:55;5.97;;;4.28;;
34236;SDS011;20501;45.956;13.632;2023-05-07T06:46:21;6.18;;;5.30;;
34236;SDS011;20501;45.956;13.632;2023-05-07T06:48:46;7.10;;;5.00;;
34236;SDS011;20501;45.956;13.632;2023-05-07T06:51:12;6.45;;;5.63;;
34236;SDS011;20501;45.956;13.632;2023-05-07T06:53:37;6.43;;;5.00;;
34236;SDS011;20501;45.956;13.632;2023-05-07T06:56:02;10.00;;;5.05;;
34236;SDS011;20501;45.956;13.632;2023-05-07T06:58:28;7.43;;;5.10;;
34236;SDS011;20501;45.956;13.632;2023-05-07T07:00:53;6.40;;;5.45;;
34236;SDS011;20501;45.956;13.632;2023-05-07T07:03:19;8.15;;;4.90;;
34236;SDS011;20501;45.956;13.632;2023-05-07T07:05:44;8.32;;;5.20;;
34236;SDS011;20501;45.956;13.632;2023-05-07T07:08:10;7.45;;;4.85;;
34236;SDS011;20501;45.956;13.632;2023-05-07T07:10:35;5.78;;;4.97;;
34236;SDS011;20501;45.956;13.632;2023-05-07T07:13:01;7.00;;;5.10;;
34236;SDS011;20501;45.956;13.632;2023-05-07T07:15:26;8.85;;;5.30;;
34236;SDS011;20501;45.956;13.632;2023-05-07T07:17:52;6.80;;;5.03;;
34236;SDS011;20501;45.956;13.632;2023-05-07T07:20:17;8.63;;;5.13;;
34236;SDS011;20501;45.956;13.632;2023-05-07T07:22:42;6.13;;;4.70;;
34236;SDS011;20501;45.956;13.632;2023-05-07T07:25:08;7.85;;;4.88;;
34236;SDS011;20501;45.956;13.632;2023-05-07T07:27:34;9.88;;;4.88;;
34236;SDS011;20501;45.956;13.632;2023-05-07T07:29:59;6.32;;;4.60;;
34236;SDS011;20501;45.956;13.632;2023-05-07T07:32:25;6.93;;;4.72;;
34236;SDS011;20501;45.956;13.632;2023-05-07T07:34:51;7.70;;;4.60;;
34236;SDS011;20501;45.956;13.632;2023-05-07T07:37:16;9.02;;;4.70;;
34236;SDS011;20501;45.956;13.632;2023-05-07T07:39:41;5.70;;;5.10;;
34236;SDS011;20501;45.956;13.632;2023-05-07T07:42:07;6.05;;;4.80;;
34236;SDS011;20501;45.956;13.632;2023-05-07T07:44:32;7.25;;;4.85;;
34236;SDS011;20501;45.956;13.632;2023-05-07T07:46:58;7.90;;;4.57;;
34236;SDS011;20501;45.956;13.632;2023-05-07T07:49:23;7.60;;;4.85;;
34236;SDS011;20501;45.956;13.632;2023-05-07T07:51:48;5.95;;;4.55;;
34236;SDS011;20501;45.956;13.632;2023-05-07T07:54:14;7.95;;;4.57;;
34236;SDS011;20501;45.956;13.632;2023-05-07T07:56:39;6.80;;;4.82;;
34236;SDS011;20501;45.956;13.632;2023-05-07T07:59:05;5.18;;;4.35;;
34236;SDS011;20501;45.956;13.632;2023-05-07T08:01:30;6.25;;;4.63;;
34236;SDS011;20501;45.956;13.632;2023-05-07T08:03:56;5.00;;;4.22;;
34236;SDS011;20501;45.956;13.632;2023-05-07T08:06:23;8.98;;;4.88;;
34236;SDS011;20501;45.956;13.632;2023-05-07T08:08:50;6.75;;;4.32;;
34236;SDS011;20501;45.956;13.632;2023-05-07T08:11:15;6.03;;;5.13;;
34236;SDS011;20501;45.956;13.632;2023-05-07T08:13:41;5.55;;;4.47;;
34236;SDS011;20501;45.956;13.632;2023-05-07T08:16:06;6.10;;;4.55;;
34236;SDS011;20501;45.956;13.632;2023-05-07T08:18:32;7.35;;;4.93;;
34236;SDS011;20501;45.956;13.632;2023-05-07T08:20:57;8.18;;;5.68;;
34236;SDS011;20501;45.956;13.632;2023-05-07T08:23:23;8.82;;;5.65;;
34236;SDS011;20501;45.956;13.632;2023-05-07T08:25:48;9.20;;;5.40;;
34236;SDS011;20501;45.956;13.632;2023-05-07T08:28:14;7.37;;;4.93;;
34236;SDS011;20501;45.956;13.632;2023-05-07T08:30:40;5.00;;;4.50;;
34236;SDS011;20501;45.956;13.632;2023-05-07T08:33:06;5.72;;;4.60;;
34236;SDS011;20501;45.956;13.632;2023-05-07T08:35:31;4.80;;;4.30;;
34236;SDS011;20501;45.956;13.632;2023-05-07T08:37:56;8.50;;;4.80;;
34236;SDS011;20501;45.956;13.632;2023-05-07T08:40:23;6.22;;;4.70;;
34236;SDS011;20501;45.956;13.632;2023-05-07T08:42:51;5.72;;;4.88;;
34236;SDS011;20501;45.956;13.632;2023-05-07T08:45:17;6.45;;;4.78;;
34236;SDS011;20501;45.956;13.632;2023-05-07T08:47:52;6.13;;;4.22;;
34236;SDS011;20501;45.956;13.632;2023-05-07T08:50:23;5.38;;;4.63;;
34236;SDS011;20501;45.956;13.632;2023-05-07T08:52:49;5.95;;;4.57;;
34236;SDS011;20501;45.956;13.632;2023-05-07T08:55:14;6.18;;;4.63;;
34236;SDS011;20501;45.956;13.632;2023-05-07T08:57:40;5.25;;;4.50;;
34236;SDS011;20501;45.956;13.632;2023-05-07T09:00:05;5.90;;;4.80;;
34236;SDS011;20501;45.956;13.632;2023-05-07T09:02:32;5.72;;;5.07;;
34236;SDS011;20501;45.956;13.632;2023-05-07T09:04:58;8.07;;;4.10;;
34236;SDS011;20501;45.956;13.632;2023-05-07T09:07:24;6.53;;;4.63;;
34236;SDS011;20501;45.956;13.632;2023-05-07T09:09:50;5.30;;;4.80;;
34236;SDS011;20501;45.956;13.632;2023-05-07T09:12:15;6.47;;;4.97;;
34236;SDS011;20501;45.956;13.632;2023-05-07T09:14:42;6.57;;;5.35;;
34236;SDS011;20501;45.956;13.632;2023-05-07T09:17:08;5.63;;;4.80;;
34236;SDS011;20501;45.956;13.632;2023-05-07T09:19:33;8.65;;;5.00;;
34236;SDS011;20501;45.956;13.632;2023-05-07T09:21:59;4.18;;;3.78;;
34236;SDS011;20501;45.956;13.632;2023-05-07T09:26:51;4.95;;;4.10;;
34236;SDS011;20501;45.956;13.632;2023-05-07T09:29:18;5.28;;;4.57;;
34236;SDS011;20501;45.956;13.632;2023-05-07T09:31:43;4.80;;;4.28;;
34236;SDS011;20501;45.956;13.632;2023-05-07T09:34:08;3.90;;;3.50;;
34236;SDS011;20501;45.956;13.632;2023-05-07T09:36:34;4.97;;;3.80;;
34236;SDS011;20501;45.956;13.632;2023-05-07T09:39:00;4.30;;;3.88;;
34236;SDS011;20501;45.956;13.632;2023-05-07T09:41:25;4.70;;;3.35;;
34236;SDS011;20501;45.956;13.632;2023-05-07T09:43:54;6.22;;;4.25;;
34236;SDS011;20501;45.956;13.632;2023-05-07T09:46:20;5.75;;;4.00;;
34236;SDS011;20501;45.956;13.632;2023-05-07T09:48:50;5.05;;;4.13;;
34236;SDS011;20501;45.956;13.632;2023-05-07T09:51:30;6.85;;;4.60;;
34236;SDS011;20501;45.956;13.632;2023-05-07T09:54:10;6.03;;;3.88;;
34236;SDS011;20501;45.956;13.632;2023-05-07T09:56:36;7.65;;;4.68;;
34236;SDS011;20501;45.956;13.632;2023-05-07T09:59:06;5.82;;;4.60;;
34236;SDS011;20501;45.956;13.632;2023-05-07T10:01:32;5.55;;;4.63;;
34236;SDS011;20501;45.956;13.632;2023-05-07T10:04:01;5.47;;;4.68;;
34236;SDS011;20501;45.956;13.632;2023-05-07T10:06:29;5.13;;;4.55;;
34236;SDS011;20501;45.956;13.632;2023-05-07T10:08:55;6.97;;;4.82;;
34236;SDS011;20501;45.956;13.632;2023-05-07T10:11:21;5.40;;;4.77;;
34236;SDS011;20501;45.956;13.632;2023-05-07T10:13:47;5.75;;;4.78;;
34236;SDS011;20501;45.956;13.632;2023-05-07T10:16:13;5.70;;;4.15;;
34236;SDS011;20501;45.956;13.632;2023-05-07T10:18:42;7.63;;;5.50;;
34236;SDS011;20501;45.956;13.632;2023-05-07T10:21:11;5.28;;;4.78;;
34236;SDS011;20501;45.956;13.632;2023-05-07T10:23:43;5.57;;;4.15;;
34236;SDS011;20501;45.956;13.632;2023-05-07T10:26:11;6.65;;;4.15;;
34236;SDS011;20501;45.956;13.632;2023-05-07T10:31:13;5.40;;;4.00;;
34236;SDS011;20501;45.956;13.632;2023-05-07T10:33:48;5.15;;;4.05;;
34236;SDS011;20501;45.956;13.632;2023-05-07T10:36:16;9.05;;;4.47;;
34236;SDS011;20501;45.956;13.632;2023-05-07T10:38:42;5.28;;;4.13;;
34236;SDS011;20501;45.956;13.632;2023-05-07T10:41:08;5.55;;;3.95;;
34236;SDS011;20501;45.956;13.632;2023-05-07T10:43:41;4.65;;;3.05;;
34236;SDS011;20501;45.956;13.632;2023-05-07T10:49:19;3.42;;;2.55;;
34236;SDS011;20501;45.956;13.632;2023-05-07T10:51:26;4.55;;;2.97;;
34236;SDS011;20501;45.956;13.632;2023-05-07T10:56:36;4.97;;;2.70;;
34236;SDS011;20501;45.956;13.632;2023-05-07T11:01:58;6.35;;;2.97;;
34236;SDS011;20501;45.956;13.632;2023-05-07T11:04:29;4.22;;;3.00;;
34236;SDS011;20501;45.956;13.632;2023-05-07T11:17:31;4.57;;;2.80;;
34236;SDS011;20501;45.956;13.632;2023-05-07T11:19:59;2.85;;;2.58;;
34236;SDS011;20501;45.956;13.632;2023-05-07T11:25:04;3.25;;;2.95;;
34236;SDS011;20501;45.956;13.632;2023-05-07T11:27:33;3.03;;;2.72;;
34236;SDS011;20501;45.956;13.632;2023-05-07T11:29:59;4.10;;;3.28;;
34236;SDS011;20501;45.956;13.632;2023-05-07T11:34:52;3.88;;;3.08;;
34236;SDS011;20501;45.956;13.632;2023-05-07T11:37:18;4.10;;;2.80;;
34236;SDS011;20501;45.956;13.632;2023-05-07T11:39:44;4.13;;;2.40;;
34236;SDS011;20501;45.956;13.632;2023-05-07T11:45:10;5.68;;;3.10;;
34236;SDS011;20501;45.956;13.632;2023-05-07T11:47:36;4.80;;;2.40;;
34236;SDS011;20501;45.956;13.632;2023-05-07T11:50:02;6.25;;;2.70;;
34236;SDS011;20501;45.956;13.632;2023-05-07T11:52:32;3.42;;;2.35;;
34236;SDS011;20501;45.956;13.632;2023-05-07T11:54:58;3.58;;;2.45;;
34236;SDS011;20501;45.956;13.632;2023-05-07T11:57:25;2.85;;;2.13;;
34236;SDS011;20501;45.956;13.632;2023-05-07T12:02:19;2.88;;;2.30;;
34236;SDS011;20501;45.956;13.632;2023-05-07T12:04:45;2.13;;;1.92;;
34236;SDS011;20501;45.956;13.632;2023-05-07T12:07:11;4.00;;;2.45;;
34236;SDS011;20501;45.956;13.632;2023-05-07T12:09:40;2.97;;;2.17;;
34236;SDS011;20501;45.956;13.632;2023-05-07T12:12:06;2.50;;;2.08;;
34236;SDS011;20501;45.956;13.632;2023-05-07T12:14:32;3.47;;;2.78;;
34236;SDS011;20501;45.956;13.632;2023-05-07T12:17:02;3.95;;;1.92;;
34236;SDS011;20501;45.956;13.632;2023-05-07T12:19:29;3.97;;;1.67;;
34236;SDS011;20501;45.956;13.632;2023-05-07T12:21:55;3.17;;;2.53;;
34236;SDS011;20501;45.956;13.632;2023-05-07T12:24:21;3.28;;;2.47;;
34236;SDS011;20501;45.956;13.632;2023-05-07T12:26:47;4.38;;;2.70;;
34236;SDS011;20501;45.956;13.632;2023-05-07T12:29:13;2.72;;;1.92;;
34236;SDS011;20501;45.956;13.632;2023-05-07T12:31:40;2.38;;;2.17;;
34236;SDS011;20501;45.956;13.632;2023-05-07T12:34:10;2.80;;;2.25;;
34236;SDS011;20501;45.956;13.632;2023-05-07T12:36:37;4.03;;;2.03;;
34236;SDS011;20501;45.956;13.632;2023-05-07T12:39:04;2.22;;;1.83;;
34236;SDS011;20501;45.956;13.632;2023-05-07T12:41:30;2.60;;;2.38;;
34236;SDS011;20501;45.956;13.632;2023-05-07T12:44:03;5.72;;;2.42;;
34236;SDS011;20501;45.956;13.632;2023-05-07T12:46:30;3.30;;;2.30;;
34236;SDS011;20501;45.956;13.632;2023-05-07T12:48:55;2.67;;;2.20;;
34236;SDS011;20501;45.956;13.632;2023-05-07T12:51:21;6.13;;;3.08;;
34236;SDS011;20501;45.956;13.632;2023-05-07T12:53:47;4.93;;;3.03;;
34236;SDS011;20501;45.956;13.632;2023-05-07T12:56:12;4.28;;;3.30;;
34236;SDS011;20501;45.956;13.632;2023-05-07T12:58:40;4.47;;;2.80;;
34236;SDS011;20501;45.956;13.632;2023-05-07T13:01:06;4.90;;;3.33;;
34236;SDS011;20501;45.956;13.632;2023-05-07T13:03:35;3.45;;;2.70;;
34236;SDS011;20501;45.956;13.632;2023-05-07T13:06:02;5.45;;;3.40;;
34236;SDS011;20501;45.956;13.632;2023-05-07T13:10:53;5.78;;;3.40;;
34236;SDS011;20501;45.956;13.632;2023-05-07T13:13:20;4.30;;;3.63;;
34236;SDS011;20501;45.956;13.632;2023-05-07T13:15:46;7.37;;;4.03;;
34236;SDS011;20501;45.956;13.632;2023-05-07T13:18:12;4.57;;;3.47;;
34236;SDS011;20501;45.956;13.632;2023-05-07T13:20:37;4.60;;;3.17;;
34236;SDS011;20501;45.956;13.632;2023-05-07T13:23:03;6.95;;;2.97;;
34236;SDS011;20501;45.956;13.632;2023-05-07T13:25:29;4.15;;;3.45;;
34236;SDS011;20501;45.956;13.632;2023-05-07T13:27:56;5.10;;;3.30;;
34236;SDS011;20501;45.956;13.632;2023-05-07T13:30:22;4.78;;;3.50;;
34236;SDS011;20501;45.956;13.632;2023-05-07T13:32:47;6.10;;;3.50;;
34236;SDS011;20501;45.956;13.632;2023-05-07T13:35:13;5.30;;;3.63;;
34236;SDS011;20501;45.956;13.632;2023-05-07T13:37:39;4.80;;;3.30;;
34236;SDS011;20501;45.956;13.632;2023-05-07T13:40:05;3.58;;;3.13;;
34236;SDS011;20501;45.956;13.632;2023-05-07T13:42:31;4.63;;;3.75;;
34236;SDS011;20501;45.956;13.632;2023-05-07T13:44:56;5.20;;;4.13;;
34236;SDS011;20501;45.956;13.632;2023-05-07T13:47:22;4.93;;;3.30;;
34236;SDS011;20501;45.956;13.632;2023-05-07T13:49:47;4.70;;;3.45;;
34236;SDS011;20501;45.956;13.632;2023-05-07T13:52:15;5.72;;;4.13;;
34236;SDS011;20501;45.956;13.632;2023-05-07T13:54:41;6.13;;;4.53;;
34236;SDS011;20501;45.956;13.632;2023-05-07T13:57:07;5.65;;;4.75;;
34236;SDS011;20501;45.956;13.632;2023-05-07T13:59:32;8.88;;;5.20;;
34236;SDS011;20501;45.956;13.632;2023-05-07T14:01:58;6.47;;;5.23;;
34236;SDS011;20501;45.956;13.632;2023-05-07T14:04:24;5.32;;;4.47;;
34236;SDS011;20501;45.956;13.632;2023-05-07T14:06:49;8.93;;;6.38;;
34236;SDS011;20501;45.956;13.632;2023-05-07T14:09:15;7.80;;;5.70;;
34236;SDS011;20501;45.956;13.632;2023-05-07T14:11:41;5.95;;;5.32;;
34236;SDS011;20501;45.956;13.632;2023-05-07T14:14:06;8.57;;;5.95;;
34236;SDS011;20501;45.956;13.632;2023-05-07T14:16:31;10.65;;;5.55;;
34236;SDS011;20501;45.956;13.632;2023-05-07T14:18:57;9.07;;;5.80;;
34236;SDS011;20501;45.956;13.632;2023-05-07T14:21:22;9.70;;;5.85;;
34236;SDS011;20501;45.956;13.632;2023-05-07T14:23:48;6.93;;;5.60;;
34236;SDS011;20501;45.956;13.632;2023-05-07T14:26:13;8.50;;;5.38;;
34236;SDS011;20501;45.956;13.632;2023-05-07T14:28:39;7.82;;;4.80;;
34236;SDS011;20501;45.956;13.632;2023-05-07T14:31:05;10.13;;;6.05;;
34236;SDS011;20501;45.956;13.632;2023-05-07T14:33:31;6.97;;;5.10;;
34236;SDS011;20501;45.956;13.632;2023-05-07T14:35:57;5.75;;;4.45;;
34236;SDS011;20501;45.956;13.632;2023-05-07T14:38:22;5.90;;;4.57;;
34236;SDS011;20501;45.956;13.632;2023-05-07T14:40:47;5.72;;;4.90;;
34236;SDS011;20501;45.956;13.632;2023-05-07T14:43:13;5.60;;;3.83;;
34236;SDS011;20501;45.956;13.632;2023-05-07T14:45:38;5.93;;;4.45;;
34236;SDS011;20501;45.956;13.632;2023-05-07T14:48:04;5.75;;;3.80;;
34236;SDS011;20501;45.956;13.632;2023-05-07T14:50:30;5.40;;;3.83;;
34236;SDS011;20501;45.956;13.632;2023-05-07T14:52:55;5.70;;;3.92;;
34236;SDS011;20501;45.956;13.632;2023-05-07T14:55:21;5.07;;;3.85;;
34236;SDS011;20501;45.956;13.632;2023-05-07T14:57:46;14.65;;;4.65;;
34236;SDS011;20501;45.956;13.632;2023-05-07T15:00:12;5.50;;;3.55;;
34236;SDS011;20501;45.956;13.632;2023-05-07T15:02:38;4.82;;;3.80;;
34236;SDS011;20501;45.956;13.632;2023-05-07T15:05:03;4.82;;;3.63;;
34236;SDS011;20501;45.956;13.632;2023-05-07T15:07:29;6.40;;;3.85;;
34236;SDS011;20501;45.956;13.632;2023-05-07T15:09:57;7.95;;;4.22;;
34236;SDS011;20501;45.956;13.632;2023-05-07T15:12:23;4.57;;;3.65;;
34236;SDS011;20501;45.956;13.632;2023-05-07T15:14:48;4.38;;;3.70;;
34236;SDS011;20501;45.956;13.632;2023-05-07T15:17:13;7.57;;;4.75;;
34236;SDS011;20501;45.956;13.632;2023-05-07T15:19:40;5.30;;;4.00;;
34236;SDS011;20501;45.956;13.632;2023-05-07T15:22:05;6.22;;;5.32;;
34236;SDS011;20501;45.956;13.632;2023-05-07T15:24:31;7.22;;;4.55;;
34236;SDS011;20501;45.956;13.632;2023-05-07T15:26:56;6.43;;;4.47;;
34236;SDS011;20501;45.956;13.632;2023-05-07T15:29:25;6.93;;;5.18;;
34236;SDS011;20501;45.956;13.632;2023-05-07T15:31:51;6.15;;;4.50;;
34236;SDS011;20501;45.956;13.632;2023-05-07T15:34:17;6.00;;;4.57;;
34236;SDS011;20501;45.956;13.632;2023-05-07T15:36:43;5.63;;;4.40;;
34236;SDS011;20501;45.956;13.632;2023-05-07T15:39:08;7.45;;;4.75;;